createdAt,value
2023-04-24T00:02:12.235Z,6.50
2023-04-24T00:07:14.211Z,6.60
2023-04-24T00:12:16.001Z,5.57
2023-04-24T00:17:20.894Z,6.72
2023-04-24T00:22:23.136Z,4.22
2023-04-24T00:27:24.792Z,4.70
2023-04-24T00:32:26.585Z,4.00
2023-04-24T00:37:28.355Z,4.38
2023-04-24T00:42:30.151Z,4.03
2023-04-24T00:47:33.716Z,3.92
2023-04-24T00:52:35.604Z,4.70
2023-04-24T00:57:38.578Z,4.82
2023-04-24T01:02:45.071Z,4.50
2023-04-24T01:07:50.040Z,5.57
2023-04-24T01:12:52.785Z,4.75
2023-04-24T01:17:54.569Z,4.65
2023-04-24T01:22:57.581Z,5.13
2023-04-24T01:27:59.755Z,4.72
2023-04-24T01:33:01.921Z,4.97
2023-04-24T01:38:03.849Z,6.35
2023-04-24T01:43:05.640Z,5.82
2023-04-24T01:48:07.491Z,5.20
2023-04-24T01:53:09.681Z,5.35
2023-04-24T01:58:11.664Z,5.03
2023-04-24T02:03:13.501Z,5.93
2023-04-24T02:08:15.341Z,5.75
2023-04-24T02:13:17.065Z,4.63
2023-04-24T02:18:19.262Z,5.15
2023-04-24T02:23:21.333Z,4.88
2023-04-24T02:28:23.089Z,4.40
2023-04-24T02:33:25.942Z,5.85
2023-04-24T02:38:27.627Z,5.22
2023-04-24T02:43:29.397Z,5.88
2023-04-24T02:48:31.142Z,5.22
2023-04-24T02:53:32.996Z,5.00
2023-04-24T02:58:34.917Z,4.18
2023-04-24T03:03:37.506Z,6.00
2023-04-24T03:08:39.405Z,5.35
2023-04-24T03:13:41.104Z,5.28
2023-04-24T03:18:42.924Z,6.13
2023-04-24T03:23:45.752Z,5.80
2023-04-24T03:28:47.519Z,6.47
2023-04-24T03:33:49.370Z,6.07
2023-04-24T03:38:51.664Z,5.55
2023-04-24T03:44:03.768Z,4.60
2023-04-24T03:49:06.850Z,4.85
2023-04-24T03:54:12.342Z,1.02
2023-04-24T03:59:15.519Z,1.13
2023-04-24T04:04:21.291Z,1.63
2023-04-24T04:09:23.192Z,2.25
2023-04-24T04:14:25.009Z,1.42
2023-04-24T04:19:27.578Z,0.98
2023-04-24T04:24:29.739Z,1.00
2023-04-24T04:29:33.850Z,1.90
2023-04-24T04:34:38.765Z,1.45
2023-04-24T04:39:42.791Z,0.75
2023-04-24T04:44:58.494Z,2.17
2023-04-24T04:50:11.526Z,1.10
2023-04-24T04:55:14.424Z,0.70
2023-04-24T05:00:38.764Z,1.38
2023-04-24T05:06:03.497Z,0.77
2023-04-24T05:11:08.954Z,0.80
2023-04-24T05:16:12.102Z,1.02
2023-04-24T05:21:15.002Z,0.47
2023-04-24T05:26:20.327Z,1.85
2023-04-24T05:31:22.293Z,1.50
2023-04-24T05:36:25.518Z,1.17
2023-04-24T05:41:28.408Z,2.28
2023-04-24T05:46:30.259Z,1.65
2023-04-24T05:51:32.744Z,0.57
2023-04-24T05:56:34.905Z,0.70
2023-04-24T06:01:39.402Z,2.72
2023-04-24T06:06:46.998Z,0.88
2023-04-24T06:11:53.713Z,2.20
2023-04-24T06:16:58.707Z,1.05
2023-04-24T06:22:13.732Z,1.58
2023-04-24T06:27:16.670Z,1.92
2023-04-24T06:32:18.399Z,1.80
2023-04-24T06:37:21.578Z,1.45
2023-04-24T06:42:24.780Z,0.80
2023-04-24T06:47:26.600Z,1.10
2023-04-24T06:52:28.405Z,0.65
2023-04-24T06:57:30.751Z,0.88
2023-04-24T07:02:32.696Z,0.88
2023-04-24T07:07:35.223Z,1.80
2023-04-24T07:12:37.043Z,0.68
2023-04-24T07:17:39.593Z,2.05
2023-04-24T07:22:41.688Z,0.43
2023-04-24T07:27:43.445Z,1.77
2023-04-24T07:32:45.420Z,0.95
2023-04-24T07:37:47.483Z,0.75
2023-04-24T07:42:52.193Z,1.20
2023-04-24T07:47:53.927Z,0.80
2023-04-24T07:52:55.838Z,1.27
2023-04-24T07:57:57.549Z,1.17
2023-04-24T08:02:59.455Z,2.08
2023-04-24T08:08:01.398Z,1.98
2023-04-24T08:13:03.695Z,1.80
2023-04-24T08:18:05.778Z,1.17
2023-04-24T08:23:07.490Z,1.05
2023-04-24T08:28:10.260Z,0.77
2023-04-24T08:33:11.882Z,0.60
2023-04-24T08:38:13.516Z,1.70
2023-04-24T08:43:16.709Z,1.60
2023-04-24T08:48:29.632Z,2.47
2023-04-24T08:53:34.082Z,1.50
2023-04-24T08:58:36.665Z,0.55
2023-04-24T09:03:39.669Z,1.05
2023-04-24T09:08:42.312Z,1.45
2023-04-24T09:13:44.528Z,0.82
2023-04-24T09:18:46.945Z,0.50
2023-04-24T09:23:58.977Z,0.70
2023-04-24T09:29:00.994Z,0.82
2023-04-24T09:34:08.239Z,1.23
2023-04-24T09:39:16.787Z,1.40
2023-04-24T09:44:21.893Z,0.60
2023-04-24T09:49:28.346Z,0.82
2023-04-24T09:54:30.826Z,1.35
2023-04-24T09:59:33.038Z,1.35
2023-04-24T10:05:03.226Z,1.40
2023-04-24T10:10:21.968Z,1.85
2023-04-24T10:15:39.740Z,1.50
2023-04-24T10:20:48.933Z,0.68
2023-04-24T10:25:55.727Z,1.42
2023-04-24T10:31:02.257Z,2.58
2023-04-24T10:36:25.873Z,0.80
2023-04-24T10:41:32.579Z,0.82
2023-04-24T10:51:56.882Z,0.50
2023-04-24T10:57:33.683Z,0.88
2023-04-24T11:02:41.295Z,1.23
2023-04-24T11:08:14.227Z,0.63
2023-04-24T11:13:22.454Z,0.35
2023-04-24T11:18:24.082Z,0.75
2023-04-24T11:23:25.715Z,1.45
2023-04-24T11:28:29.461Z,1.15
2023-04-24T11:33:32.812Z,0.63
2023-04-24T11:38:34.510Z,4.03
2023-04-24T11:43:36.321Z,1.33
2023-04-24T11:48:41.028Z,1.48
2023-04-24T11:53:43.563Z,1.20
2023-04-24T11:58:46.988Z,1.42
2023-04-24T12:03:50.297Z,0.57
2023-04-24T12:09:01.676Z,0.93
2023-04-24T12:14:13.383Z,1.30
2023-04-24T12:19:21.259Z,1.08
2023-04-24T12:24:22.863Z,1.58
2023-04-24T12:29:25.621Z,0.55
2023-04-24T12:34:27.251Z,2.22
2023-04-24T12:39:28.969Z,2.55
2023-04-24T12:44:32.684Z,0.30
2023-04-24T12:49:34.301Z,0.43
2023-04-24T12:54:36.116Z,1.08
2023-04-24T12:59:37.692Z,1.40
2023-04-24T13:04:39.594Z,1.20
2023-04-24T13:09:42.106Z,1.33
2023-04-24T13:14:43.735Z,1.33
2023-04-24T13:19:46.364Z,0.70
2023-04-24T13:24:51.924Z,1.52
2023-04-24T13:29:53.658Z,1.85
2023-04-24T13:34:55.367Z,1.40
2023-04-24T13:39:56.924Z,0.82
2023-04-24T13:44:58.574Z,0.47
2023-04-24T13:50:00.329Z,1.60
2023-04-24T13:55:02.277Z,0.85
2023-04-24T14:00:05.144Z,0.30
2023-04-24T14:05:09.103Z,2.65
2023-04-24T14:10:11.361Z,1.23
2023-04-24T14:15:14.412Z,1.40
2023-04-24T14:20:16.236Z,1.25
2023-04-24T14:25:17.861Z,0.93
2023-04-24T14:30:20.024Z,0.50
2023-04-24T14:35:21.843Z,1.15
2023-04-24T14:40:48.599Z,1.98
2023-04-24T14:45:45.176Z,1.27
2023-04-24T14:50:46.854Z,0.70
2023-04-24T14:55:48.555Z,3.40
2023-04-24T15:00:55.453Z,0.55
2023-04-24T15:05:57.638Z,1.35
2023-04-24T15:10:59.502Z,2.05
2023-04-24T15:16:01.411Z,0.77
2023-04-24T15:21:03.602Z,1.55
2023-04-24T15:26:05.356Z,0.73
2023-04-24T15:31:06.978Z,1.45
2023-04-24T15:36:09.105Z,1.77
2023-04-24T15:41:11.897Z,0.98
2023-04-24T15:46:13.746Z,0.63
2023-04-24T15:51:15.466Z,0.85
2023-04-24T15:56:17.079Z,0.50
2023-04-24T16:01:19.006Z,2.08
2023-04-24T16:06:20.981Z,2.08
2023-04-24T16:11:22.764Z,0.75
2023-04-24T16:16:24.701Z,0.80
2023-04-24T16:21:27.082Z,1.05
2023-04-24T16:26:28.800Z,0.47
2023-04-24T16:31:30.708Z,1.42
2023-04-24T16:36:32.602Z,0.70
2023-04-24T16:41:34.221Z,3.53
2023-04-24T16:46:35.904Z,1.75
2023-04-24T16:51:37.703Z,1.23
2023-04-24T16:56:39.833Z,0.95
2023-04-24T17:01:41.610Z,1.95
2023-04-24T17:06:43.296Z,1.02
2023-04-24T17:11:44.985Z,0.57
2023-04-24T17:16:46.894Z,0.35
2023-04-24T17:21:48.503Z,1.00
2023-04-24T17:26:51.139Z,3.47
2023-04-24T17:31:53.716Z,0.70
2023-04-24T17:36:55.530Z,0.45
2023-04-24T17:41:57.142Z,0.32
2023-04-24T17:46:59.080Z,0.57
2023-04-24T17:52:00.812Z,0.45
2023-04-24T17:57:02.907Z,0.65
2023-04-24T18:02:04.674Z,1.20
2023-04-24T18:07:06.296Z,3.35
2023-04-24T18:12:08.211Z,1.38
2023-04-24T18:17:10.020Z,2.17
2023-04-24T18:22:11.671Z,0.88
2023-04-24T18:27:13.386Z,1.83
2023-04-24T18:32:15.217Z,2.30
2023-04-24T18:37:16.901Z,2.25
2023-04-24T18:42:18.857Z,1.38
2023-04-24T18:47:20.642Z,0.70
2023-04-24T18:52:23.537Z,3.63
2023-04-24T18:57:25.252Z,1.00
2023-04-24T19:02:26.938Z,1.40
2023-04-24T19:07:29.324Z,0.47
2023-04-24T19:12:31.060Z,2.38
2023-04-24T19:17:32.717Z,2.65
2023-04-24T19:22:34.700Z,1.35
2023-04-24T19:27:36.359Z,2.20
2023-04-24T19:32:38.099Z,1.73
2023-04-24T19:37:39.825Z,0.68
2023-04-24T19:42:44.665Z,0.50
2023-04-24T19:47:46.938Z,0.60
2023-04-24T19:52:48.641Z,0.77
2023-04-24T19:57:50.325Z,0.63
2023-04-24T20:02:52.141Z,0.60
2023-04-24T20:07:53.806Z,1.55
2023-04-24T20:12:55.667Z,0.77
2023-04-24T20:17:57.353Z,1.02
2023-04-24T20:22:59.032Z,1.02
2023-04-24T20:28:00.728Z,0.98
2023-04-24T20:33:02.428Z,1.15
2023-04-24T20:38:04.220Z,1.10
2023-04-24T20:43:07.570Z,2.38
2023-04-24T20:48:09.904Z,1.33
2023-04-24T20:53:11.624Z,1.33
2023-04-24T20:58:13.283Z,3.28
2023-04-24T21:03:15.720Z,2.47
2023-04-24T21:08:17.672Z,1.33
2023-04-24T21:13:19.378Z,2.60
2023-04-24T21:18:21.179Z,2.25
2023-04-24T21:23:22.832Z,2.33
2023-04-24T21:28:25.430Z,1.98
2023-04-24T21:33:27.086Z,2.38
2023-04-24T21:38:29.091Z,2.20
2023-04-24T21:43:43.534Z,2.67
2023-04-24T21:48:46.594Z,1.33
2023-04-24T21:53:48.872Z,3.85
2023-04-24T21:58:50.795Z,1.85
2023-04-24T22:03:52.765Z,2.15
2023-04-24T22:08:54.898Z,1.58
2023-04-24T22:13:56.998Z,2.03
2023-04-24T22:18:58.614Z,2.72
2023-04-24T22:24:00.293Z,2.42
2023-04-24T22:29:01.877Z,2.08
2023-04-24T22:34:03.850Z,1.40
2023-04-24T22:39:05.622Z,2.88
2023-04-24T22:44:07.498Z,2.22
2023-04-24T22:49:10.184Z,3.22
2023-04-24T22:54:11.840Z,2.60
2023-04-24T22:59:13.477Z,1.98
2023-04-24T23:04:15.425Z,1.80
2023-04-24T23:09:17.188Z,3.20
2023-04-24T23:14:18.835Z,3.60
2023-04-24T23:19:20.489Z,2.35
2023-04-24T23:24:22.393Z,3.80
2023-04-24T23:29:26.097Z,2.47
2023-04-24T23:34:27.713Z,2.65
2023-04-24T23:39:29.322Z,2.88
2023-04-24T23:44:31.089Z,2.80
2023-04-24T23:49:32.685Z,3.63
2023-04-24T23:54:34.970Z,3.42
2023-04-24T23:59:36.622Z,3.35
